sensor_id;sensor_type;location;lat;lon;timestamp;P1;durP1;ratioP1;P2;durP2;ratioP2
44366;SDS011;30086;57.660;12.000;2024-01-30T00:00:05;94.40;;;24.33;;
44366;SDS011;30086;57.660;12.000;2024-01-30T00:02:33;104.55;;;23.40;;
44366;SDS011;30086;57.660;12.000;2024-01-30T00:05:00;68.57;;;20.20;;
44366;SDS011;30086;57.660;12.000;2024-01-30T00:07:26;94.90;;;21.63;;
44366;SDS011;30086;57.660;12.000;2024-01-30T00:09:53;86.10;;;21.80;;
44366;SDS011;30086;57.660;12.000;2024-01-30T00:12:20;83.38;;;20.33;;
44366;SDS011;30086;57.660;12.000;2024-01-30T00:14:46;76.25;;;21.88;;
44366;SDS011;30086;57.660;12.000;2024-01-30T00:17:12;74.88;;;22.38;;
44366;SDS011;30086;57.660;12.000;2024-01-30T00:19:38;80.72;;;22.50;;
44366;SDS011;30086;57.660;12.000;2024-01-30T00:22:05;71.80;;;18.85;;
44366;SDS011;30086;57.660;12.000;2024-01-30T00:24:31;74.70;;;19.33;;
44366;SDS011;30086;57.660;12.000;2024-01-30T00:26:58;70.05;;;18.85;;
44366;SDS011;30086;57.660;12.000;2024-01-30T00:29:24;71.30;;;19.92;;
44366;SDS011;30086;57.660;12.000;2024-01-30T00:31:54;66.65;;;18.30;;
44366;SDS011;30086;57.660;12.000;2024-01-30T00:34:21;60.78;;;18.02;;
44366;SDS011;30086;57.660;12.000;2024-01-30T00:36:49;71.65;;;18.58;;
44366;SDS011;30086;57.660;12.000;2024-01-30T00:39:18;73.03;;;18.95;;
44366;SDS011;30086;57.660;12.000;2024-01-30T00:41:44;59.70;;;18.33;;
44366;SDS011;30086;57.660;12.000;2024-01-30T00:44:11;64.38;;;18.35;;
44366;SDS011;30086;57.660;12.000;2024-01-30T00:46:37;70.30;;;19.92;;
44366;SDS011;30086;57.660;12.000;2024-01-30T00:49:03;66.15;;;18.92;;
44366;SDS011;30086;57.660;12.000;2024-01-30T00:51:30;59.88;;;17.42;;
44366;SDS011;30086;57.660;12.000;2024-01-30T00:53:57;55.97;;;16.73;;
44366;SDS011;30086;57.660;12.000;2024-01-30T00:56:24;54.28;;;17.60;;
44366;SDS011;30086;57.660;12.000;2024-01-30T00:58:50;43.42;;;15.07;;
44366;SDS011;30086;57.660;12.000;2024-01-30T01:01:16;53.00;;;15.73;;
44366;SDS011;30086;57.660;12.000;2024-01-30T01:03:42;61.30;;;17.85;;
44366;SDS011;30086;57.660;12.000;2024-01-30T01:06:08;57.72;;;18.15;;
44366;SDS011;30086;57.660;12.000;2024-01-30T01:08:35;54.25;;;16.95;;
44366;SDS011;30086;57.660;12.000;2024-01-30T01:11:03;56.67;;;17.00;;
44366;SDS011;30086;57.660;12.000;2024-01-30T01:13:29;68.20;;;17.02;;
44366;SDS011;30086;57.660;12.000;2024-01-30T01:15:55;59.72;;;17.33;;
44366;SDS011;30086;57.660;12.000;2024-01-30T01:18:21;73.03;;;17.48;;
44366;SDS011;30086;57.660;12.000;2024-01-30T01:20:48;58.53;;;16.77;;
44366;SDS011;30086;57.660;12.000;2024-01-30T01:23:14;47.45;;;15.55;;
44366;SDS011;30086;57.660;12.000;2024-01-30T01:25:40;55.78;;;15.35;;
44366;SDS011;30086;57.660;12.000;2024-01-30T01:28:06;58.42;;;16.42;;
44366;SDS011;30086;57.660;12.000;2024-01-30T01:30:32;57.88;;;16.58;;
44366;SDS011;30086;57.660;12.000;2024-01-30T01:32:59;46.08;;;15.10;;
44366;SDS011;30086;57.660;12.000;2024-01-30T01:35:28;50.17;;;15.52;;
44366;SDS011;30086;57.660;12.000;2024-01-30T01:37:54;42.55;;;15.63;;
44366;SDS011;30086;57.660;12.000;2024-01-30T01:40:22;47.58;;;15.63;;
44366;SDS011;30086;57.660;12.000;2024-01-30T01:42:49;47.75;;;14.77;;
44366;SDS011;30086;57.660;12.000;2024-01-30T01:45:16;49.25;;;15.18;;
44366;SDS011;30086;57.660;12.000;2024-01-30T01:47:43;45.80;;;16.05;;
44366;SDS011;30086;57.660;12.000;2024-01-30T01:50:12;48.75;;;15.82;;
44366;SDS011;30086;57.660;12.000;2024-01-30T01:52:42;45.25;;;14.68;;
44366;SDS011;30086;57.660;12.000;2024-01-30T01:55:09;40.00;;;14.68;;
44366;SDS011;30086;57.660;12.000;2024-01-30T01:57:35;38.20;;;14.90;;
44366;SDS011;30086;57.660;12.000;2024-01-30T02:00:02;45.78;;;16.00;;
44366;SDS011;30086;57.660;12.000;2024-01-30T02:02:31;38.55;;;13.75;;
44366;SDS011;30086;57.660;12.000;2024-01-30T02:04:58;38.47;;;14.77;;
44366;SDS011;30086;57.660;12.000;2024-01-30T02:07:25;39.67;;;13.68;;
44366;SDS011;30086;57.660;12.000;2024-01-30T02:09:51;36.10;;;12.55;;
44366;SDS011;30086;57.660;12.000;2024-01-30T02:12:20;40.38;;;13.50;;
44366;SDS011;30086;57.660;12.000;2024-01-30T02:14:46;43.78;;;14.15;;
44366;SDS011;30086;57.660;12.000;2024-01-30T02:17:14;39.97;;;13.75;;
44366;SDS011;30086;57.660;12.000;2024-01-30T02:19:42;33.13;;;13.40;;
44366;SDS011;30086;57.660;12.000;2024-01-30T02:22:08;37.85;;;13.98;;
44366;SDS011;30086;57.660;12.000;2024-01-30T02:24:35;36.20;;;13.23;;
44366;SDS011;30086;57.660;12.000;2024-01-30T02:27:01;29.65;;;12.07;;
44366;SDS011;30086;57.660;12.000;2024-01-30T02:29:29;33.65;;;11.63;;
44366;SDS011;30086;57.660;12.000;2024-01-30T02:31:55;36.22;;;13.23;;
44366;SDS011;30086;57.660;12.000;2024-01-30T02:34:21;37.60;;;14.30;;
44366;SDS011;30086;57.660;12.000;2024-01-30T02:36:47;30.30;;;11.90;;
44366;SDS011;30086;57.660;12.000;2024-01-30T02:39:16;28.75;;;11.43;;
44366;SDS011;30086;57.660;12.000;2024-01-30T02:41:44;34.83;;;12.63;;
44366;SDS011;30086;57.660;12.000;2024-01-30T02:44:11;37.72;;;13.52;;
44366;SDS011;30086;57.660;12.000;2024-01-30T02:46:37;34.72;;;13.63;;
44366;SDS011;30086;57.660;12.000;2024-01-30T02:49:03;36.33;;;13.35;;
44366;SDS011;30086;57.660;12.000;2024-01-30T02:51:29;40.63;;;14.35;;
44366;SDS011;30086;57.660;12.000;2024-01-30T02:53:56;28.35;;;12.85;;
44366;SDS011;30086;57.660;12.000;2024-01-30T02:56:22;35.00;;;12.70;;
44366;SDS011;30086;57.660;12.000;2024-01-30T02:58:48;32.30;;;12.45;;
44366;SDS011;30086;57.660;12.000;2024-01-30T03:01:16;32.78;;;13.48;;
44366;SDS011;30086;57.660;12.000;2024-01-30T03:03:43;33.00;;;12.75;;
44366;SDS011;30086;57.660;12.000;2024-01-30T03:06:09;28.83;;;12.68;;
44366;SDS011;30086;57.660;12.000;2024-01-30T03:08:36;28.38;;;12.35;;
44366;SDS011;30086;57.660;12.000;2024-01-30T03:11:04;34.03;;;12.77;;
44366;SDS011;30086;57.660;12.000;2024-01-30T03:13:31;29.52;;;11.93;;
44366;SDS011;30086;57.660;12.000;2024-01-30T03:15:57;28.20;;;11.35;;
44366;SDS011;30086;57.660;12.000;2024-01-30T03:18:23;29.40;;;12.45;;
44366;SDS011;30086;57.660;12.000;2024-01-30T03:20:49;27.27;;;11.70;;
44366;SDS011;30086;57.660;12.000;2024-01-30T03:23:17;25.70;;;11.18;;
44366;SDS011;30086;57.660;12.000;2024-01-30T03:25:45;30.48;;;11.88;;
44366;SDS011;30086;57.660;12.000;2024-01-30T03:28:12;30.13;;;11.57;;
44366;SDS011;30086;57.660;12.000;2024-01-30T03:30:38;31.65;;;13.13;;
44366;SDS011;30086;57.660;12.000;2024-01-30T03:33:04;32.28;;;12.43;;
44366;SDS011;30086;57.660;12.000;2024-01-30T03:35:30;26.00;;;11.38;;
44366;SDS011;30086;57.660;12.000;2024-01-30T03:37:57;26.38;;;11.10;;
44366;SDS011;30086;57.660;12.000;2024-01-30T03:40:23;28.05;;;11.35;;
44366;SDS011;30086;57.660;12.000;2024-01-30T03:42:50;30.55;;;12.95;;
44366;SDS011;30086;57.660;12.000;2024-01-30T03:45:16;28.05;;;12.23;;
44366;SDS011;30086;57.660;12.000;2024-01-30T03:47:44;30.08;;;11.68;;
44366;SDS011;30086;57.660;12.000;2024-01-30T03:50:13;29.90;;;11.90;;
44366;SDS011;30086;57.660;12.000;2024-01-30T03:52:39;34.25;;;12.80;;
44366;SDS011;30086;57.660;12.000;2024-01-30T03:55:05;28.10;;;11.85;;
44366;SDS011;30086;57.660;12.000;2024-01-30T03:57:31;29.48;;;11.93;;
44366;SDS011;30086;57.660;12.000;2024-01-30T03:59:58;28.95;;;12.48;;
44366;SDS011;30086;57.660;12.000;2024-01-30T04:02:24;29.92;;;11.40;;
44366;SDS011;30086;57.660;12.000;2024-01-30T04:04:50;24.40;;;11.13;;
44366;SDS011;30086;57.660;12.000;2024-01-30T04:07:16;25.08;;;11.38;;
44366;SDS011;30086;57.660;12.000;2024-01-30T04:09:42;30.40;;;11.65;;
44366;SDS011;30086;57.660;12.000;2024-01-30T04:12:08;27.50;;;12.13;;
44366;SDS011;30086;57.660;12.000;2024-01-30T04:14:37;27.98;;;12.48;;
44366;SDS011;30086;57.660;12.000;2024-01-30T04:17:04;35.97;;;14.52;;
44366;SDS011;30086;57.660;12.000;2024-01-30T04:19:30;27.65;;;12.65;;
44366;SDS011;30086;57.660;12.000;2024-01-30T04:21:56;29.25;;;13.40;;
44366;SDS011;30086;57.660;12.000;2024-01-30T04:24:22;30.40;;;12.93;;
44366;SDS011;30086;57.660;12.000;2024-01-30T04:26:49;28.02;;;12.45;;
44366;SDS011;30086;57.660;12.000;2024-01-30T04:29:15;31.80;;;14.00;;
44366;SDS011;30086;57.660;12.000;2024-01-30T04:31:41;33.47;;;13.90;;
44366;SDS011;30086;57.660;12.000;2024-01-30T04:34:09;41.03;;;14.73;;
44366;SDS011;30086;57.660;12.000;2024-01-30T04:36:35;40.00;;;14.55;;
44366;SDS011;30086;57.660;12.000;2024-01-30T04:39:01;37.38;;;14.25;;
44366;SDS011;30086;57.660;12.000;2024-01-30T04:41:28;45.15;;;15.05;;
44366;SDS011;30086;57.660;12.000;2024-01-30T04:44:01;43.53;;;14.93;;
44366;SDS011;30086;57.660;12.000;2024-01-30T04:46:27;49.22;;;15.52;;
44366;SDS011;30086;57.660;12.000;2024-01-30T04:48:53;47.17;;;16.70;;
44366;SDS011;30086;57.660;12.000;2024-01-30T04:51:19;50.35;;;16.50;;
44366;SDS011;30086;57.660;12.000;2024-01-30T04:53:46;46.85;;;14.20;;
44366;SDS011;30086;57.660;12.000;2024-01-30T04:56:12;43.65;;;14.73;;
44366;SDS011;30086;57.660;12.000;2024-01-30T04:58:38;45.20;;;14.63;;
44366;SDS011;30086;57.660;12.000;2024-01-30T05:01:05;54.22;;;16.50;;
44366;SDS011;30086;57.660;12.000;2024-01-30T05:03:33;51.63;;;15.98;;
44366;SDS011;30086;57.660;12.000;2024-01-30T05:05:59;47.42;;;15.80;;
44366;SDS011;30086;57.660;12.000;2024-01-30T05:08:25;41.65;;;15.18;;
44366;SDS011;30086;57.660;12.000;2024-01-30T05:10:51;43.00;;;15.05;;
44366;SDS011;30086;57.660;12.000;2024-01-30T05:13:19;46.20;;;14.98;;
44366;SDS011;30086;57.660;12.000;2024-01-30T05:15:46;37.03;;;13.63;;
44366;SDS011;30086;57.660;12.000;2024-01-30T05:18:13;35.28;;;13.57;;
44366;SDS011;30086;57.660;12.000;2024-01-30T05:20:40;36.83;;;13.52;;
44366;SDS011;30086;57.660;12.000;2024-01-30T05:23:06;39.97;;;13.43;;
44366;SDS011;30086;57.660;12.000;2024-01-30T05:25:32;45.00;;;13.90;;
44366;SDS011;30086;57.660;12.000;2024-01-30T05:28:01;34.78;;;12.55;;
44366;SDS011;30086;57.660;12.000;2024-01-30T05:30:28;29.23;;;11.38;;
44366;SDS011;30086;57.660;12.000;2024-01-30T05:33:00;35.67;;;11.95;;
44366;SDS011;30086;57.660;12.000;2024-01-30T05:35:26;23.52;;;10.85;;
44366;SDS011;30086;57.660;12.000;2024-01-30T05:37:52;27.42;;;10.85;;
44366;SDS011;30086;57.660;12.000;2024-01-30T05:40:19;25.63;;;10.43;;
44366;SDS011;30086;57.660;12.000;2024-01-30T05:42:46;26.98;;;11.35;;
44366;SDS011;30086;57.660;12.000;2024-01-30T05:45:14;27.75;;;10.60;;
44366;SDS011;30086;57.660;12.000;2024-01-30T05:47:40;29.58;;;11.02;;
44366;SDS011;30086;57.660;12.000;2024-01-30T05:50:08;26.33;;;9.98;;
44366;SDS011;30086;57.660;12.000;2024-01-30T05:52:34;28.83;;;11.60;;
44366;SDS011;30086;57.660;12.000;2024-01-30T05:55:00;25.65;;;10.70;;
44366;SDS011;30086;57.660;12.000;2024-01-30T05:57:27;28.52;;;11.25;;
44366;SDS011;30086;57.660;12.000;2024-01-30T06:00:11;24.17;;;10.82;;
44366;SDS011;30086;57.660;12.000;2024-01-30T06:02:38;33.28;;;11.13;;
44366;SDS011;30086;57.660;12.000;2024-01-30T06:05:06;29.20;;;11.88;;
44366;SDS011;30086;57.660;12.000;2024-01-30T06:07:41;28.70;;;12.15;;
44366;SDS011;30086;57.660;12.000;2024-01-30T06:10:07;35.30;;;12.85;;
44366;SDS011;30086;57.660;12.000;2024-01-30T06:12:34;31.80;;;12.38;;
44366;SDS011;30086;57.660;12.000;2024-01-30T06:15:04;34.75;;;12.57;;
44366;SDS011;30086;57.660;12.000;2024-01-30T06:17:51;32.00;;;12.45;;
44366;SDS011;30086;57.660;12.000;2024-01-30T06:20:18;29.60;;;11.70;;
44366;SDS011;30086;57.660;12.000;2024-01-30T06:22:46;34.58;;;13.18;;
44366;SDS011;30086;57.660;12.000;2024-01-30T06:25:12;36.35;;;13.75;;
44366;SDS011;30086;57.660;12.000;2024-01-30T06:27:38;32.45;;;13.13;;
44366;SDS011;30086;57.660;12.000;2024-01-30T06:30:08;42.90;;;13.90;;
44366;SDS011;30086;57.660;12.000;2024-01-30T06:32:37;35.78;;;14.63;;
44366;SDS011;30086;57.660;12.000;2024-01-30T06:35:04;29.65;;;13.32;;
44366;SDS011;30086;57.660;12.000;2024-01-30T06:37:36;43.10;;;13.73;;
44366;SDS011;30086;57.660;12.000;2024-01-30T06:40:24;33.38;;;14.13;;
44366;SDS011;30086;57.660;12.000;2024-01-30T06:42:50;42.25;;;15.65;;
44366;SDS011;30086;57.660;12.000;2024-01-30T06:45:17;40.63;;;13.88;;
44366;SDS011;30086;57.660;12.000;2024-01-30T06:47:46;45.47;;;14.98;;
44366;SDS011;30086;57.660;12.000;2024-01-30T06:50:21;42.20;;;14.68;;
44366;SDS011;30086;57.660;12.000;2024-01-30T06:53:05;51.03;;;16.10;;
44366;SDS011;30086;57.660;12.000;2024-01-30T06:56:00;41.85;;;17.65;;
44366;SDS011;30086;57.660;12.000;2024-01-30T06:58:46;48.35;;;17.65;;
44366;SDS011;30086;57.660;12.000;2024-01-30T07:01:14;50.80;;;17.33;;
44366;SDS011;30086;57.660;12.000;2024-01-30T07:03:43;52.42;;;17.95;;
44366;SDS011;30086;57.660;12.000;2024-01-30T07:06:12;52.00;;;17.85;;
44366;SDS011;30086;57.660;12.000;2024-01-30T07:08:39;57.67;;;19.88;;
44366;SDS011;30086;57.660;12.000;2024-01-30T07:11:19;51.53;;;18.33;;
44366;SDS011;30086;57.660;12.000;2024-01-30T07:14:08;56.05;;;17.02;;
44366;SDS011;30086;57.660;12.000;2024-01-30T07:16:34;52.63;;;17.42;;
44366;SDS011;30086;57.660;12.000;2024-01-30T07:19:06;44.80;;;16.88;;
44366;SDS011;30086;57.660;12.000;2024-01-30T07:24:34;45.85;;;16.35;;
44366;SDS011;30086;57.660;12.000;2024-01-30T07:29:41;43.90;;;15.77;;
44366;SDS011;30086;57.660;12.000;2024-01-30T07:32:08;42.40;;;15.73;;
44366;SDS011;30086;57.660;12.000;2024-01-30T07:34:37;37.65;;;15.73;;
44366;SDS011;30086;57.660;12.000;2024-01-30T07:37:05;36.88;;;14.38;;
44366;SDS011;30086;57.660;12.000;2024-01-30T07:39:37;40.50;;;14.75;;
44366;SDS011;30086;57.660;12.000;2024-01-30T07:42:03;41.83;;;17.02;;
44366;SDS011;30086;57.660;12.000;2024-01-30T07:44:29;41.60;;;14.93;;
44366;SDS011;30086;57.660;12.000;2024-01-30T07:47:00;42.95;;;16.50;;
44366;SDS011;30086;57.660;12.000;2024-01-30T07:52:29;31.75;;;13.45;;
44366;SDS011;30086;57.660;12.000;2024-01-30T07:55:23;38.00;;;14.20;;
44366;SDS011;30086;57.660;12.000;2024-01-30T08:01:14;36.95;;;13.52;;
44366;SDS011;30086;57.660;12.000;2024-01-30T08:04:11;33.20;;;13.05;;
44366;SDS011;30086;57.660;12.000;2024-01-30T08:06:51;31.77;;;13.70;;
44366;SDS011;30086;57.660;12.000;2024-01-30T08:22:46;33.83;;;13.57;;
44366;SDS011;30086;57.660;12.000;2024-01-30T08:25:14;31.55;;;12.45;;
44366;SDS011;30086;57.660;12.000;2024-01-30T08:27:40;26.33;;;10.35;;
44366;SDS011;30086;57.660;12.000;2024-01-30T08:30:11;26.45;;;11.35;;
44366;SDS011;30086;57.660;12.000;2024-01-30T08:32:51;26.42;;;11.82;;
44366;SDS011;30086;57.660;12.000;2024-01-30T08:35:21;22.13;;;10.45;;
44366;SDS011;30086;57.660;12.000;2024-01-30T08:37:53;26.88;;;10.23;;
44366;SDS011;30086;57.660;12.000;2024-01-30T08:40:25;30.65;;;12.75;;
44366;SDS011;30086;57.660;12.000;2024-01-30T08:43:11;29.65;;;13.52;;
44366;SDS011;30086;57.660;12.000;2024-01-30T08:45:37;29.95;;;13.65;;
44366;SDS011;30086;57.660;12.000;2024-01-30T08:48:03;34.45;;;14.13;;
44366;SDS011;30086;57.660;12.000;2024-01-30T08:50:31;42.50;;;14.77;;
44366;SDS011;30086;57.660;12.000;2024-01-30T08:53:01;39.83;;;14.45;;
44366;SDS011;30086;57.660;12.000;2024-01-30T08:55:31;37.15;;;14.02;;
44366;SDS011;30086;57.660;12.000;2024-01-30T08:57:57;39.92;;;15.52;;
44366;SDS011;30086;57.660;12.000;2024-01-30T09:00:23;43.70;;;15.63;;
44366;SDS011;30086;57.660;12.000;2024-01-30T09:02:51;37.63;;;16.50;;
44366;SDS011;30086;57.660;12.000;2024-01-30T09:05:19;37.45;;;15.63;;
44366;SDS011;30086;57.660;12.000;2024-01-30T09:07:45;42.95;;;17.45;;
44366;SDS011;30086;57.660;12.000;2024-01-30T09:10:13;39.42;;;14.73;;
44366;SDS011;30086;57.660;12.000;2024-01-30T09:12:39;34.85;;;15.15;;
44366;SDS011;30086;57.660;12.000;2024-01-30T09:15:07;43.20;;;17.45;;
44366;SDS011;30086;57.660;12.000;2024-01-30T09:17:33;40.75;;;16.63;;
44366;SDS011;30086;57.660;12.000;2024-01-30T09:19:59;47.10;;;16.95;;
44366;SDS011;30086;57.660;12.000;2024-01-30T09:22:26;46.60;;;18.83;;
44366;SDS011;30086;57.660;12.000;2024-01-30T09:24:53;45.35;;;18.48;;
44366;SDS011;30086;57.660;12.000;2024-01-30T09:27:19;49.72;;;18.45;;
44366;SDS011;30086;57.660;12.000;2024-01-30T09:29:45;55.17;;;20.30;;
44366;SDS011;30086;57.660;12.000;2024-01-30T09:32:40;46.67;;;18.27;;
44366;SDS011;30086;57.660;12.000;2024-01-30T09:35:08;45.40;;;18.73;;
44366;SDS011;30086;57.660;12.000;2024-01-30T09:37:35;49.95;;;16.45;;
44366;SDS011;30086;57.660;12.000;2024-01-30T09:40:01;51.78;;;17.30;;
44366;SDS011;30086;57.660;12.000;2024-01-30T09:42:35;48.17;;;17.65;;
44366;SDS011;30086;57.660;12.000;2024-01-30T09:45:04;39.35;;;15.30;;
44366;SDS011;30086;57.660;12.000;2024-01-30T09:47:51;43.53;;;15.32;;
44366;SDS011;30086;57.660;12.000;2024-01-30T09:50:22;45.08;;;15.13;;
44366;SDS011;30086;57.660;12.000;2024-01-30T09:52:48;40.90;;;17.52;;
44366;SDS011;30086;57.660;12.000;2024-01-30T09:55:15;41.22;;;16.27;;
44366;SDS011;30086;57.660;12.000;2024-01-30T09:57:41;48.10;;;16.33;;
44366;SDS011;30086;57.660;12.000;2024-01-30T10:00:09;44.85;;;16.77;;
44366;SDS011;30086;57.660;12.000;2024-01-30T10:02:36;44.58;;;20.13;;
44366;SDS011;30086;57.660;12.000;2024-01-30T10:05:11;37.45;;;15.63;;
44366;SDS011;30086;57.660;12.000;2024-01-30T10:07:49;38.53;;;15.82;;
44366;SDS011;30086;57.660;12.000;2024-01-30T10:10:15;38.40;;;15.25;;
44366;SDS011;30086;57.660;12.000;2024-01-30T10:12:42;40.50;;;14.13;;
44366;SDS011;30086;57.660;12.000;2024-01-30T10:15:08;39.10;;;15.48;;
44366;SDS011;30086;57.660;12.000;2024-01-30T10:17:37;40.08;;;13.73;;
44366;SDS011;30086;57.660;12.000;2024-01-30T10:20:06;40.10;;;14.00;;
44366;SDS011;30086;57.660;12.000;2024-01-30T10:22:34;41.75;;;14.50;;
44366;SDS011;30086;57.660;12.000;2024-01-30T10:25:02;40.65;;;15.20;;
44366;SDS011;30086;57.660;12.000;2024-01-30T10:27:31;44.17;;;15.13;;
44366;SDS011;30086;57.660;12.000;2024-01-30T10:54:28;47.55;;;15.38;;
44366;SDS011;30086;57.660;12.000;2024-01-30T10:57:00;47.85;;;15.75;;
44366;SDS011;30086;57.660;12.000;2024-01-30T10:59:58;64.93;;;18.08;;
44366;SDS011;30086;57.660;12.000;2024-01-30T11:02:29;58.35;;;17.17;;
44366;SDS011;30086;57.660;12.000;2024-01-30T11:05:06;70.72;;;19.70;;
44366;SDS011;30086;57.660;12.000;2024-01-30T11:07:35;64.32;;;16.83;;
44366;SDS011;30086;57.660;12.000;2024-01-30T11:10:04;73.38;;;20.60;;
44366;SDS011;30086;57.660;12.000;2024-01-30T11:12:37;77.38;;;21.65;;
44366;SDS011;30086;57.660;12.000;2024-01-30T11:15:16;90.40;;;19.85;;
44366;SDS011;30086;57.660;12.000;2024-01-30T11:17:51;100.82;;;24.33;;
44366;SDS011;30086;57.660;12.000;2024-01-30T11:20:30;97.38;;;22.00;;
44366;SDS011;30086;57.660;12.000;2024-01-30T11:29:02;102.05;;;23.73;;
44366;SDS011;30086;57.660;12.000;2024-01-30T11:31:33;91.82;;;22.40;;
44366;SDS011;30086;57.660;12.000;2024-01-30T11:34:00;89.68;;;23.33;;
44366;SDS011;30086;57.660;12.000;2024-01-30T11:36:33;86.15;;;20.98;;
44366;SDS011;30086;57.660;12.000;2024-01-30T11:39:12;107.43;;;24.98;;
44366;SDS011;30086;57.660;12.000;2024-01-30T11:41:51;89.80;;;22.83;;
44366;SDS011;30086;57.660;12.000;2024-01-30T11:44:20;119.22;;;26.40;;
44366;SDS011;30086;57.660;12.000;2024-01-30T11:46:50;92.95;;;22.90;;
44366;SDS011;30086;57.660;12.000;2024-01-30T11:49:35;120.28;;;25.77;;
44366;SDS011;30086;57.660;12.000;2024-01-30T11:52:02;92.45;;;24.60;;
44366;SDS011;30086;57.660;12.000;2024-01-30T11:54:41;106.43;;;23.85;;
44366;SDS011;30086;57.660;12.000;2024-01-30T11:57:15;100.60;;;26.30;;
44366;SDS011;30086;57.660;12.000;2024-01-30T11:59:48;110.35;;;25.55;;
44366;SDS011;30086;57.660;12.000;2024-01-30T12:02:29;92.80;;;26.20;;
44366;SDS011;30086;57.660;12.000;2024-01-30T12:05:41;79.93;;;23.42;;
44366;SDS011;30086;57.660;12.000;2024-01-30T12:08:19;83.78;;;22.52;;
44366;SDS011;30086;57.660;12.000;2024-01-30T12:10:58;71.95;;;20.33;;
44366;SDS011;30086;57.660;12.000;2024-01-30T12:13:34;56.78;;;19.23;;
44366;SDS011;30086;57.660;12.000;2024-01-30T12:16:05;74.85;;;22.45;;
44366;SDS011;30086;57.660;12.000;2024-01-30T12:18:59;75.72;;;21.50;;
44366;SDS011;30086;57.660;12.000;2024-01-30T12:22:11;75.90;;;20.80;;
44366;SDS011;30086;57.660;12.000;2024-01-30T12:24:57;80.25;;;23.15;;
44366;SDS011;30086;57.660;12.000;2024-01-30T12:35:17;103.78;;;22.73;;
44366;SDS011;30086;57.660;12.000;2024-01-30T12:37:51;119.10;;;25.08;;
44366;SDS011;30086;57.660;12.000;2024-01-30T12:46:46;125.03;;;27.83;;
44366;SDS011;30086;57.660;12.000;2024-01-30T12:52:03;106.35;;;23.85;;
44366;SDS011;30086;57.660;12.000;2024-01-30T13:01:12;120.88;;;29.65;;
44366;SDS011;30086;57.660;12.000;2024-01-30T13:25:55;87.05;;;27.23;;
44366;SDS011;30086;57.660;12.000;2024-01-30T13:28:24;87.32;;;26.58;;
44366;SDS011;30086;57.660;12.000;2024-01-30T14:40:01;47.60;;;22.13;;
44366;SDS011;30086;57.660;12.000;2024-01-30T14:42:49;48.60;;;24.80;;
44366;SDS011;30086;57.660;12.000;2024-01-30T14:45:23;48.25;;;21.48;;
44366;SDS011;30086;57.660;12.000;2024-01-30T16:17:17;63.50;;;30.65;;
44366;SDS011;30086;57.660;12.000;2024-01-30T16:20:37;64.22;;;28.92;;
44366;SDS011;30086;57.660;12.000;2024-01-30T16:23:04;63.22;;;31.88;;
44366;SDS011;30086;57.660;12.000;2024-01-30T16:25:52;60.75;;;28.60;;
44366;SDS011;30086;57.660;12.000;2024-01-30T16:28:23;59.58;;;28.42;;
44366;SDS011;30086;57.660;12.000;2024-01-30T16:30:53;54.42;;;26.13;;
44366;SDS011;30086;57.660;12.000;2024-01-30T16:33:19;59.97;;;28.23;;
44366;SDS011;30086;57.660;12.000;2024-01-30T16:35:46;54.92;;;26.33;;
44366;SDS011;30086;57.660;12.000;2024-01-30T16:38:12;70.07;;;27.55;;
44366;SDS011;30086;57.660;12.000;2024-01-30T16:40:40;57.58;;;27.95;;
44366;SDS011;30086;57.660;12.000;2024-01-30T16:43:07;57.38;;;29.20;;
44366;SDS011;30086;57.660;12.000;2024-01-30T16:45:34;63.22;;;27.98;;
44366;SDS011;30086;57.660;12.000;2024-01-30T16:48:00;55.22;;;31.35;;
44366;SDS011;30086;57.660;12.000;2024-01-30T16:50:27;69.35;;;28.27;;
44366;SDS011;30086;57.660;12.000;2024-01-30T16:52:54;71.57;;;30.23;;
44366;SDS011;30086;57.660;12.000;2024-01-30T16:55:21;58.75;;;29.13;;
44366;SDS011;30086;57.660;12.000;2024-01-30T16:57:47;64.13;;;30.67;;
44366;SDS011;30086;57.660;12.000;2024-01-30T17:00:15;67.40;;;29.15;;
44366;SDS011;30086;57.660;12.000;2024-01-30T17:02:41;74.53;;;29.60;;
44366;SDS011;30086;57.660;12.000;2024-01-30T17:05:08;74.03;;;32.25;;
44366;SDS011;30086;57.660;12.000;2024-01-30T17:07:35;76.50;;;32.53;;
44366;SDS011;30086;57.660;12.000;2024-01-30T17:10:01;65.38;;;29.75;;
44366;SDS011;30086;57.660;12.000;2024-01-30T17:12:29;72.97;;;31.08;;
44366;SDS011;30086;57.660;12.000;2024-01-30T17:14:58;64.35;;;29.60;;
44366;SDS011;30086;57.660;12.000;2024-01-30T17:17:30;67.18;;;28.40;;
44366;SDS011;30086;57.660;12.000;2024-01-30T17:19:56;63.28;;;29.83;;
44366;SDS011;30086;57.660;12.000;2024-01-30T17:22:22;63.58;;;27.25;;
44366;SDS011;30086;57.660;12.000;2024-01-30T17:24:49;62.08;;;32.70;;
44366;SDS011;30086;57.660;12.000;2024-01-30T17:27:15;67.55;;;37.00;;
44366;SDS011;30086;57.660;12.000;2024-01-30T17:29:43;67.13;;;36.63;;
44366;SDS011;30086;57.660;12.000;2024-01-30T17:32:10;82.25;;;39.42;;
44366;SDS011;30086;57.660;12.000;2024-01-30T17:34:36;85.20;;;42.28;;
44366;SDS011;30086;57.660;12.000;2024-01-30T17:37:08;87.68;;;38.13;;
44366;SDS011;30086;57.660;12.000;2024-01-30T17:39:34;105.80;;;41.17;;
44366;SDS011;30086;57.660;12.000;2024-01-30T17:42:01;119.47;;;43.97;;
44366;SDS011;30086;57.660;12.000;2024-01-30T17:44:27;120.07;;;49.13;;
44366;SDS011;30086;57.660;12.000;2024-01-30T17:46:53;129.60;;;49.40;;
44366;SDS011;30086;57.660;12.000;2024-01-30T17:49:20;118.47;;;55.88;;
44366;SDS011;30086;57.660;12.000;2024-01-30T17:51:47;123.22;;;54.00;;
44366;SDS011;30086;57.660;12.000;2024-01-30T17:54:13;125.13;;;51.28;;
44366;SDS011;30086;57.660;12.000;2024-01-30T17:56:39;136.57;;;50.97;;
44366;SDS011;30086;57.660;12.000;2024-01-30T17:59:05;141.98;;;58.00;;
44366;SDS011;30086;57.660;12.000;2024-01-30T18:01:31;156.43;;;54.13;;
44366;SDS011;30086;57.660;12.000;2024-01-30T18:03:59;149.98;;;54.25;;
44366;SDS011;30086;57.660;12.000;2024-01-30T18:06:28;138.85;;;61.25;;
44366;SDS011;30086;57.660;12.000;2024-01-30T18:08:54;145.70;;;64.50;;
44366;SDS011;30086;57.660;12.000;2024-01-30T18:11:20;141.05;;;56.15;;
44366;SDS011;30086;57.660;12.000;2024-01-30T18:13:47;142.93;;;65.32;;
44366;SDS011;30086;57.660;12.000;2024-01-30T18:16:13;145.82;;;55.90;;
44366;SDS011;30086;57.660;12.000;2024-01-30T18:18:39;156.55;;;62.20;;
44366;SDS011;30086;57.660;12.000;2024-01-30T18:21:05;164.23;;;60.03;;
44366;SDS011;30086;57.660;12.000;2024-01-30T18:23:32;164.82;;;60.58;;
44366;SDS011;30086;57.660;12.000;2024-01-30T18:25:59;156.60;;;53.45;;
44366;SDS011;30086;57.660;12.000;2024-01-30T18:28:26;165.75;;;61.30;;
44366;SDS011;30086;57.660;12.000;2024-01-30T18:30:54;164.88;;;56.58;;
44366;SDS011;30086;57.660;12.000;2024-01-30T18:33:21;172.73;;;63.30;;
44366;SDS011;30086;57.660;12.000;2024-01-30T18:35:48;182.82;;;63.83;;
44366;SDS011;30086;57.660;12.000;2024-01-30T18:38:16;186.95;;;79.85;;
44366;SDS011;30086;57.660;12.000;2024-01-30T18:40:42;205.45;;;75.97;;